createdAt,value
2024-04-11T00:01:27.436Z,3.60
2024-04-11T00:03:57.216Z,4.18
2024-04-11T00:06:24.400Z,3.63
2024-04-11T00:08:54.735Z,3.92
2024-04-11T00:11:22.547Z,3.67
2024-04-11T00:13:55.022Z,3.22
2024-04-11T00:16:22.984Z,3.40
2024-04-11T00:21:19.603Z,2.70
2024-04-11T00:23:50.139Z,3.20
2024-04-11T00:26:18.410Z,3.50
2024-04-11T00:28:48.223Z,3.30
2024-04-11T00:31:17.572Z,3.40
2024-04-11T00:33:56.856Z,2.88
2024-04-11T00:36:24.030Z,3.00
2024-04-11T00:38:54.401Z,3.20
2024-04-11T00:41:21.918Z,3.15
2024-04-11T00:43:51.934Z,2.95
2024-04-11T00:46:21.411Z,2.90
2024-04-11T00:48:51.026Z,3.00
2024-04-11T00:51:17.921Z,2.88
2024-04-11T00:56:15.322Z,2.45
2024-04-11T00:58:45.232Z,2.92
2024-04-11T01:01:12.096Z,2.90
2024-04-11T01:06:12.594Z,2.97
2024-04-11T01:08:42.549Z,2.80
2024-04-11T01:11:09.390Z,2.92
2024-04-11T01:16:05.799Z,2.70
2024-04-11T01:18:35.546Z,2.53
2024-04-11T01:21:02.853Z,2.97
2024-04-11T01:23:34.849Z,2.33
2024-04-11T01:26:03.209Z,2.72
2024-04-11T01:28:33.611Z,2.88
2024-04-11T01:31:00.666Z,2.50
2024-04-11T01:35:57.887Z,2.67
2024-04-11T01:38:27.259Z,2.40
2024-04-11T01:40:56.653Z,2.97
2024-04-11T01:43:25.989Z,2.40
2024-04-11T01:45:53.323Z,2.22
2024-04-11T01:48:22.779Z,2.40
2024-04-11T01:50:52.451Z,2.40
2024-04-11T01:53:22.052Z,2.58
2024-04-11T01:55:49.306Z,2.40
2024-04-11T01:58:21.830Z,2.58
2024-04-11T02:00:49.036Z,2.25
2024-04-11T02:03:19.756Z,2.53
2024-04-11T02:05:49.035Z,2.80
2024-04-11T02:08:18.398Z,2.60
2024-04-11T02:10:46.637Z,2.53
2024-04-11T02:13:16.092Z,3.00
2024-04-11T02:15:46.632Z,2.72
2024-04-11T02:18:16.083Z,2.83
2024-04-11T02:20:43.300Z,2.78
2024-04-11T02:23:12.693Z,2.85
2024-04-11T02:25:39.425Z,2.65
2024-04-11T02:28:09.101Z,2.85
2024-04-11T02:30:36.457Z,2.83
2024-04-11T02:33:08.838Z,2.70
2024-04-11T02:35:38.519Z,2.80
2024-04-11T02:38:07.992Z,2.80
2024-04-11T02:40:35.211Z,2.92
2024-04-11T02:43:05.419Z,3.03
2024-04-11T02:45:32.614Z,2.55
2024-04-11T02:48:05.370Z,2.83
2024-04-11T02:50:34.901Z,3.13
2024-04-11T02:53:04.305Z,3.05
2024-04-11T02:55:33.093Z,2.80
2024-04-11T02:58:02.620Z,3.08
2024-04-11T03:00:30.980Z,2.25
2024-04-11T03:03:00.775Z,2.45
2024-04-11T03:05:27.772Z,2.47
2024-04-11T03:10:26.351Z,1.92
2024-04-11T03:12:56.530Z,2.70
2024-04-11T03:15:23.222Z,2.55
2024-04-11T03:17:52.999Z,2.22
2024-04-11T03:20:19.851Z,2.30
2024-04-11T03:25:16.192Z,2.25
2024-04-11T03:27:48.906Z,2.35
2024-04-11T03:30:16.230Z,2.50
2024-04-11T03:32:45.978Z,2.30
2024-04-11T03:35:12.784Z,2.03
2024-04-11T03:37:42.238Z,2.00
2024-04-11T03:40:09.363Z,2.17
2024-04-11T03:42:38.792Z,2.10
2024-04-11T03:45:24.087Z,2.08
2024-04-11T03:47:54.456Z,1.95
2024-04-11T03:50:24.095Z,2.22
2024-04-11T03:52:52.551Z,1.80
2024-04-11T03:55:21.897Z,1.70
2024-04-11T03:57:49.223Z,2.00
2024-04-11T04:00:26.295Z,2.13
2024-04-11T04:02:54.477Z,1.90
2024-04-11T04:05:26.556Z,1.92
2024-04-11T04:07:54.251Z,1.90
2024-04-11T04:10:25.120Z,2.08
2024-04-11T04:12:54.266Z,1.90
2024-04-11T04:15:26.197Z,2.10
2024-04-11T04:17:55.103Z,2.00
2024-04-11T04:20:24.521Z,1.90
2024-04-11T04:22:51.261Z,1.85
2024-04-11T04:25:20.576Z,1.92
2024-04-11T04:27:47.909Z,1.60
2024-04-11T04:30:17.583Z,1.73
2024-04-11T04:32:48.525Z,1.80
2024-04-11T04:35:19.050Z,1.55
2024-04-11T04:37:46.399Z,1.80
2024-04-11T04:40:15.747Z,1.65
2024-04-11T04:42:42.455Z,1.60
2024-04-11T04:45:14.231Z,1.50
2024-04-11T04:47:42.331Z,1.83
2024-04-11T04:50:15.147Z,1.80
2024-04-11T04:52:44.593Z,1.60
2024-04-11T04:55:18.792Z,1.83
2024-04-11T04:57:46.600Z,1.60
2024-04-11T05:00:16.698Z,1.70
2024-04-11T05:02:43.664Z,1.60
2024-04-11T05:05:17.111Z,1.42
2024-04-11T05:07:45.364Z,1.48
2024-04-11T05:10:15.628Z,1.70
2024-04-11T05:12:44.600Z,1.80
2024-04-11T05:15:14.521Z,1.83
2024-04-11T05:17:42.936Z,1.50
2024-04-11T05:20:24.268Z,1.90
2024-04-11T05:22:52.864Z,1.58
2024-04-11T05:27:50.262Z,1.38
2024-04-11T05:30:20.878Z,1.58
2024-04-11T05:32:48.742Z,1.48
2024-04-11T05:35:25.004Z,1.50
2024-04-11T05:37:53.634Z,1.50
2024-04-11T05:40:23.055Z,1.65
2024-04-11T05:42:50.412Z,1.70
2024-04-11T05:45:20.811Z,1.85
2024-04-11T05:47:48.651Z,1.67
2024-04-11T05:50:18.666Z,1.45
2024-04-11T05:52:48.933Z,1.30
2024-04-11T05:55:19.213Z,1.65
2024-04-11T05:57:46.014Z,1.50
2024-04-11T06:02:44.606Z,1.48
2024-04-11T06:05:15.869Z,1.55
2024-04-11T06:07:42.598Z,1.48
2024-04-11T06:12:43.050Z,1.30
2024-04-11T06:15:13.243Z,1.50
2024-04-11T06:17:42.660Z,1.35
2024-04-11T06:20:16.726Z,1.63
2024-04-11T06:22:48.256Z,1.50
2024-04-11T06:25:17.679Z,1.40
2024-04-11T06:27:47.033Z,1.35
2024-04-11T06:30:20.911Z,1.50
2024-04-11T06:32:49.318Z,1.30
2024-04-11T06:35:19.300Z,1.40
2024-04-11T06:37:46.579Z,1.48
2024-04-11T06:40:15.879Z,1.48
2024-04-11T06:42:48.224Z,1.10
2024-04-11T06:45:20.950Z,1.40
2024-04-11T06:47:50.826Z,1.63
2024-04-11T06:50:21.621Z,1.15
2024-04-11T06:52:48.906Z,1.17
2024-04-11T06:55:20.345Z,1.40
2024-04-11T06:57:47.391Z,1.52
2024-04-11T07:00:23.226Z,1.73
2024-04-11T07:02:53.337Z,1.70
2024-04-11T07:05:22.922Z,1.38
2024-04-11T07:07:55.808Z,1.40
2024-04-11T07:10:37.604Z,1.30
2024-04-11T07:13:04.559Z,1.23
2024-04-11T07:15:42.872Z,1.42
2024-04-11T07:18:16.771Z,1.25
2024-04-11T07:20:52.065Z,1.45
2024-04-11T07:23:19.248Z,1.60
2024-04-11T07:25:51.937Z,1.65
2024-04-11T07:30:51.318Z,1.40
2024-04-11T07:33:21.261Z,1.40
2024-04-11T07:35:50.840Z,1.48
2024-04-11T07:38:18.384Z,1.30
2024-04-11T07:40:55.763Z,1.45
2024-04-11T07:43:25.988Z,1.30
2024-04-11T07:45:56.057Z,1.17
2024-04-11T07:48:27.481Z,1.52
2024-04-11T07:51:04.128Z,1.58
2024-04-11T07:53:33.294Z,1.50
2024-04-11T07:56:02.921Z,1.25
2024-04-11T07:58:30.154Z,1.48
2024-04-11T08:00:59.495Z,1.20
2024-04-11T08:03:28.881Z,1.48
2024-04-11T08:05:58.907Z,1.40
2024-04-11T08:08:27.278Z,1.40
2024-04-11T08:11:04.361Z,1.30
2024-04-11T08:13:34.904Z,1.60
2024-04-11T08:16:10.212Z,1.33
2024-04-11T08:18:39.627Z,1.70
2024-04-11T08:21:09.666Z,1.40
2024-04-11T08:23:36.815Z,1.60
2024-04-11T08:26:06.277Z,1.27
2024-04-11T08:28:38.491Z,1.60
2024-04-11T08:31:09.632Z,1.08
2024-04-11T08:33:37.165Z,1.58
2024-04-11T08:36:09.924Z,1.60
2024-04-11T08:38:37.775Z,1.67
2024-04-11T08:41:10.926Z,1.50
2024-04-11T08:43:37.925Z,1.52
2024-04-11T08:46:10.490Z,1.40
2024-04-11T08:48:38.736Z,1.80
2024-04-11T08:51:15.377Z,1.83
2024-04-11T08:56:21.246Z,1.40
2024-04-11T08:58:48.937Z,1.33
2024-04-11T09:01:19.509Z,1.25
2024-04-11T09:03:49.298Z,1.60
2024-04-11T09:06:25.842Z,1.30
2024-04-11T09:08:52.979Z,1.55
2024-04-11T09:11:27.006Z,1.40
2024-04-11T09:13:55.884Z,1.38
2024-04-11T09:16:29.226Z,1.42
2024-04-11T09:19:03.347Z,1.35
2024-04-11T09:21:35.436Z,1.42
2024-04-11T09:24:11.263Z,2.00
2024-04-11T09:26:41.269Z,1.40
2024-04-11T09:29:12.642Z,1.70
2024-04-11T09:31:43.693Z,1.52
2024-04-11T09:34:12.901Z,1.20
2024-04-11T09:36:49.835Z,1.27
2024-04-11T09:39:41.279Z,2.05
2024-04-11T09:42:13.484Z,1.95
2024-04-11T09:44:45.763Z,1.35
2024-04-11T09:47:19.994Z,1.50
2024-04-11T09:49:54.878Z,1.30
2024-04-11T09:52:31.751Z,1.23
2024-04-11T09:55:03.873Z,1.42
2024-04-11T09:57:35.389Z,1.40
2024-04-11T10:00:02.866Z,1.35
2024-04-11T10:02:34.091Z,1.50
2024-04-11T10:05:06.315Z,1.60
2024-04-11T10:07:42.813Z,1.88
2024-04-11T10:10:19.410Z,1.50
2024-04-11T10:12:50.234Z,1.33
2024-04-11T10:15:19.696Z,1.20
2024-04-11T10:17:50.193Z,1.60
2024-04-11T10:20:21.540Z,1.23
2024-04-11T10:22:54.009Z,1.38
2024-04-11T10:25:20.746Z,1.33
2024-04-11T10:30:20.024Z,1.58
2024-04-11T10:32:52.912Z,1.60
2024-04-11T10:35:25.202Z,1.42
2024-04-11T10:38:00.232Z,1.33
2024-04-11T10:40:27.558Z,1.50
2024-04-11T10:43:15.059Z,1.38
2024-04-11T10:45:47.256Z,1.60
2024-04-11T10:48:15.608Z,1.60
2024-04-11T10:50:46.223Z,1.20
2024-04-11T10:53:18.610Z,1.83
2024-04-11T10:55:48.756Z,1.60
2024-04-11T10:58:23.302Z,1.45
2024-04-11T11:01:08.884Z,1.58
2024-04-11T11:03:49.550Z,1.88
2024-04-11T11:06:21.022Z,1.70
2024-04-11T11:08:56.629Z,1.92
2024-04-11T11:11:24.801Z,1.90
2024-04-11T11:13:56.168Z,1.60
2024-04-11T11:16:24.137Z,1.70
2024-04-11T11:18:53.743Z,1.50
2024-04-11T11:21:23.482Z,1.60
2024-04-11T11:24:01.438Z,1.40
2024-04-11T11:26:37.531Z,1.35
2024-04-11T11:29:07.958Z,1.45
2024-04-11T11:31:38.513Z,1.52
2024-04-11T11:34:11.356Z,1.38
2024-04-11T11:36:39.181Z,1.20
2024-04-11T11:39:19.081Z,1.55
2024-04-11T11:41:49.031Z,1.70
2024-04-11T11:44:22.817Z,1.77
2024-04-11T11:46:51.235Z,1.65
2024-04-11T11:49:24.635Z,1.92
2024-04-11T11:51:55.792Z,1.65
2024-04-11T11:54:29.877Z,1.65
2024-04-11T11:57:10.643Z,1.48
2024-04-11T11:59:40.351Z,1.90
2024-04-11T12:02:07.169Z,1.60
2024-04-11T12:04:36.597Z,1.65
2024-04-11T12:07:06.503Z,1.48
2024-04-11T12:09:44.303Z,2.00
2024-04-11T12:12:22.347Z,1.55
2024-04-11T12:14:56.473Z,1.55
2024-04-11T12:17:24.901Z,1.45
2024-04-11T12:19:55.446Z,1.80
2024-04-11T12:22:22.196Z,2.03
2024-04-11T12:24:58.900Z,1.95
2024-04-11T12:27:25.682Z,1.92
2024-04-11T12:29:55.024Z,1.75
2024-04-11T12:32:22.168Z,2.05
2024-04-11T12:34:51.458Z,2.10
2024-04-11T12:37:25.624Z,2.33
2024-04-11T12:39:57.724Z,1.85
2024-04-11T12:42:24.872Z,2.00
2024-04-11T12:44:56.981Z,1.77
2024-04-11T12:47:40.177Z,2.35
2024-04-11T12:50:14.300Z,1.77
2024-04-11T12:52:46.509Z,2.30
2024-04-11T12:55:26.168Z,2.20
2024-04-11T12:58:02.729Z,2.17
2024-04-11T13:00:45.302Z,3.00
2024-04-11T13:03:20.081Z,2.90
2024-04-11T13:05:55.277Z,2.30
2024-04-11T13:08:29.912Z,2.70
2024-04-11T13:11:10.569Z,2.30
2024-04-11T13:13:40.852Z,2.15
2024-04-11T13:16:13.962Z,3.22
2024-04-11T13:18:41.624Z,2.83
2024-04-11T13:21:15.443Z,2.80
2024-04-11T13:23:44.908Z,1.90
2024-04-11T13:26:18.483Z,2.00
2024-04-11T13:28:51.014Z,2.30
2024-04-11T13:31:24.709Z,2.70
2024-04-11T13:33:54.475Z,2.15
2024-04-11T13:36:26.252Z,1.90
2024-04-11T13:38:53.553Z,2.17
2024-04-11T13:41:47.598Z,2.00
2024-04-11T13:46:51.933Z,2.00
2024-04-11T13:49:32.008Z,1.80
2024-04-11T13:52:20.007Z,2.15
2024-04-11T13:54:47.172Z,2.88
2024-04-11T13:57:22.320Z,2.40
2024-04-11T13:59:56.179Z,2.25
2024-04-11T14:02:48.144Z,2.40
2024-04-11T14:05:31.258Z,2.38
2024-04-11T14:08:02.571Z,2.20
2024-04-11T14:10:29.421Z,2.60
2024-04-11T14:13:01.707Z,2.28
2024-04-11T14:15:29.362Z,2.70
2024-04-11T14:17:59.319Z,2.20
2024-04-11T14:20:33.403Z,2.10
2024-04-11T14:23:16.226Z,2.03
2024-04-11T14:25:45.136Z,2.65
2024-04-11T14:28:19.760Z,2.13
2024-04-11T14:30:56.247Z,2.55
2024-04-11T14:33:42.128Z,2.80
2024-04-11T14:36:29.635Z,3.22
2024-04-11T14:38:57.070Z,3.20
2024-04-11T14:41:31.604Z,3.25
2024-04-11T14:44:01.570Z,2.72
2024-04-11T14:46:34.680Z,3.00
2024-04-11T14:49:01.747Z,2.70
2024-04-11T14:51:31.303Z,3.08
2024-04-11T14:53:58.388Z,3.40
2024-04-11T14:56:42.296Z,3.38
2024-04-11T14:59:12.504Z,3.28
2024-04-11T15:01:44.566Z,2.85
2024-04-11T15:04:11.933Z,3.42
2024-04-11T15:06:45.848Z,3.42
2024-04-11T15:09:27.542Z,3.33
2024-04-11T15:11:58.826Z,3.38
2024-04-11T15:14:28.897Z,3.05
2024-04-11T15:17:19.104Z,3.35
2024-04-11T15:19:46.391Z,2.70
2024-04-11T15:22:24.155Z,2.65
2024-04-11T15:24:55.077Z,3.08
2024-04-11T15:27:30.909Z,3.60
2024-04-11T15:32:50.008Z,3.70
2024-04-11T15:35:17.149Z,3.40
2024-04-11T15:40:51.861Z,3.15
2024-04-11T15:43:29.116Z,3.33
2024-04-11T15:46:08.116Z,3.10
2024-04-11T15:48:41.012Z,3.45
2024-04-11T15:51:08.508Z,3.78
2024-04-11T15:53:40.177Z,3.10
2024-04-11T15:56:07.349Z,3.35
2024-04-11T15:58:39.199Z,2.97
2024-04-11T16:01:06.490Z,3.15
2024-04-11T16:03:38.899Z,3.28
2024-04-11T16:06:11.127Z,3.30
2024-04-11T16:08:44.036Z,3.20
2024-04-11T16:11:14.924Z,3.65
2024-04-11T16:13:44.880Z,3.35
2024-04-11T16:16:11.850Z,3.20
2024-04-11T16:18:43.215Z,3.28
2024-04-11T16:21:16.158Z,3.60
2024-04-11T16:23:58.745Z,3.50
2024-04-11T16:26:28.115Z,3.58
2024-04-11T16:28:58.167Z,3.35
2024-04-11T16:31:28.097Z,3.33
2024-04-11T16:33:59.400Z,3.10
2024-04-11T16:36:29.053Z,3.53
2024-04-11T16:38:58.533Z,2.95
2024-04-11T16:41:38.971Z,3.60
2024-04-11T16:44:13.876Z,3.08
2024-04-11T16:46:41.911Z,3.25
2024-04-11T16:49:16.149Z,2.90
2024-04-11T16:51:45.819Z,3.10
2024-04-11T16:54:33.124Z,3.40
2024-04-11T16:56:59.958Z,3.30
2024-04-11T16:59:35.007Z,3.50
2024-04-11T17:02:02.794Z,3.25
2024-04-11T17:04:36.625Z,3.55
2024-04-11T17:07:16.273Z,4.10
2024-04-11T17:09:47.670Z,7.90
2024-04-11T17:12:19.050Z,5.43
2024-04-11T17:14:55.222Z,5.85
2024-04-11T17:17:30.235Z,4.68
2024-04-11T17:20:24.881Z,3.70
2024-04-11T17:22:55.322Z,4.53
2024-04-11T17:25:27.961Z,4.70
2024-04-11T17:27:55.265Z,5.07
2024-04-11T17:30:39.806Z,5.28
2024-04-11T17:33:20.635Z,5.10
2024-04-11T17:35:58.895Z,4.80
2024-04-11T17:38:41.995Z,5.38
2024-04-11T17:41:26.540Z,5.05
2024-04-11T17:43:54.139Z,5.13
2024-04-11T17:46:28.111Z,5.57
2024-04-11T17:48:58.070Z,4.95
2024-04-11T17:51:31.976Z,4.50
2024-04-11T17:54:01.627Z,4.75
2024-04-11T17:56:35.871Z,4.22
2024-04-11T17:59:04.526Z,4.10
2024-04-11T18:01:34.135Z,4.75
2024-04-11T18:04:01.017Z,5.50
2024-04-11T18:06:40.578Z,4.63
2024-04-11T18:09:11.221Z,4.60
2024-04-11T18:11:48.279Z,5.03
2024-04-11T18:14:15.175Z,4.97
2024-04-11T18:19:21.738Z,4.90
2024-04-11T18:21:52.704Z,4.70
2024-04-11T18:24:26.580Z,4.82
2024-04-11T18:27:05.408Z,6.20
2024-04-11T18:29:32.296Z,5.30
2024-04-11T18:32:05.879Z,4.60
2024-04-11T18:34:33.081Z,4.90
2024-04-11T18:37:02.935Z,5.03
2024-04-11T18:39:33.870Z,4.90
2024-04-11T18:42:08.582Z,4.97
2024-04-11T18:44:51.427Z,4.63
2024-04-11T18:47:41.603Z,5.28
2024-04-11T18:50:23.661Z,4.80
2024-04-11T18:52:54.582Z,5.07
2024-04-11T18:55:29.195Z,4.70
2024-04-11T18:58:00.677Z,5.13
2024-04-11T19:00:31.022Z,5.07
2024-04-11T19:03:17.329Z,5.00
2024-04-11T19:05:45.760Z,5.40
2024-04-11T19:08:15.524Z,5.30
2024-04-11T19:10:52.940Z,4.90
2024-04-11T19:13:25.882Z,5.13
2024-04-11T19:15:56.728Z,6.20
2024-04-11T19:18:27.166Z,5.25
2024-04-11T19:20:56.243Z,5.45
2024-04-11T19:23:27.434Z,5.43
2024-04-11T19:26:01.723Z,5.05
2024-04-11T19:28:38.011Z,4.78
2024-04-11T19:31:08.354Z,4.85
2024-04-11T19:33:45.413Z,4.97
2024-04-11T19:36:16.067Z,4.22
2024-04-11T19:38:45.781Z,5.38
2024-04-11T19:41:17.693Z,5.15
2024-04-11T19:43:51.159Z,5.10
2024-04-11T19:46:24.562Z,4.80
2024-04-11T19:48:54.927Z,4.47
2024-04-11T19:51:24.731Z,4.75
2024-04-11T19:54:00.189Z,4.63
2024-04-11T19:56:35.396Z,5.50
2024-04-11T19:59:07.146Z,5.23
2024-04-11T20:01:49.996Z,5.40
2024-04-11T20:04:30.950Z,5.00
2024-04-11T20:07:03.104Z,4.70
2024-04-11T20:09:36.063Z,5.00
2024-04-11T20:12:13.148Z,5.00
2024-04-11T20:14:45.601Z,5.38
2024-04-11T20:17:29.777Z,5.00
2024-04-11T20:20:04.051Z,4.93
2024-04-11T20:22:33.597Z,5.03
2024-04-11T20:25:08.170Z,4.95
2024-04-11T20:27:42.821Z,5.10
2024-04-11T20:30:18.754Z,5.15
2024-04-11T20:32:46.497Z,5.40
2024-04-11T20:35:27.968Z,5.60
2024-04-11T20:37:57.885Z,5.53
2024-04-11T20:40:34.048Z,4.80
2024-04-11T20:43:04.882Z,5.53
2024-04-11T20:45:35.984Z,5.15
2024-04-11T20:48:21.491Z,4.97
2024-04-11T20:51:07.578Z,4.80
2024-04-11T20:53:53.485Z,5.47
2024-04-11T20:56:38.747Z,5.28
2024-04-11T20:59:26.616Z,4.68
2024-04-11T21:02:11.740Z,4.47
2024-04-11T21:04:57.540Z,5.43
2024-04-11T21:07:43.212Z,5.20
2024-04-11T21:10:28.582Z,5.38
2024-04-11T21:13:14.979Z,5.27
2024-04-11T21:16:05.979Z,4.75
2024-04-11T21:18:51.554Z,5.20
2024-04-11T21:21:36.853Z,5.10
2024-04-11T21:24:22.583Z,4.70
2024-04-11T21:27:08.352Z,4.68
2024-04-11T21:29:53.556Z,5.03
2024-04-11T21:32:41.301Z,5.43
2024-04-11T21:35:11.355Z,5.53
2024-04-11T21:37:46.568Z,5.75
2024-04-11T21:40:19.192Z,5.45
2024-04-11T21:42:48.627Z,5.47
2024-04-11T21:45:20.865Z,6.13
2024-04-11T21:48:00.196Z,5.10
2024-04-11T21:50:32.061Z,6.20
2024-04-11T21:53:01.782Z,5.03
2024-04-11T21:55:28.520Z,5.68
2024-04-11T22:00:42.135Z,4.82
2024-04-11T22:03:14.911Z,5.18
2024-04-11T22:05:43.146Z,5.43
2024-04-11T22:08:12.787Z,5.72
2024-04-11T22:10:44.687Z,5.50
2024-04-11T22:13:18.794Z,5.40
2024-04-11T22:15:46.765Z,6.80
2024-04-11T22:18:32.003Z,6.68
2024-04-11T22:21:13.374Z,7.25
2024-04-11T22:23:45.957Z,7.20
2024-04-11T22:26:18.875Z,7.63
2024-04-11T22:28:49.220Z,7.60
2024-04-11T22:31:16.413Z,7.35
2024-04-11T22:33:51.474Z,7.15
2024-04-11T22:36:22.969Z,6.95
2024-04-11T22:38:53.033Z,8.55
2024-04-11T22:41:22.345Z,10.00
2024-04-11T22:43:54.439Z,9.50
2024-04-11T22:46:32.089Z,8.70
2024-04-11T22:49:13.172Z,8.55
2024-04-11T22:51:43.458Z,8.43
2024-04-11T22:54:19.054Z,9.18
2024-04-11T22:56:46.777Z,7.88
2024-04-11T22:59:37.338Z,10.00
2024-04-11T23:04:50.269Z,8.82
2024-04-11T23:07:30.938Z,10.32
2024-04-11T23:10:01.626Z,10.98
2024-04-11T23:12:37.800Z,10.25
2024-04-11T23:15:14.716Z,10.45
2024-04-11T23:17:48.497Z,9.13
2024-04-11T23:20:29.046Z,10.02
2024-04-11T23:22:57.859Z,9.10
2024-04-11T23:25:28.098Z,9.65
2024-04-11T23:27:55.736Z,10.23
2024-04-11T23:30:38.562Z,9.13
2024-04-11T23:33:05.961Z,8.90
2024-04-11T23:35:38.558Z,7.80
2024-04-11T23:38:06.690Z,8.10
2024-04-11T23:40:40.598Z,8.00
2024-04-11T23:43:09.125Z,8.88
2024-04-11T23:45:38.643Z,8.35
2024-04-11T23:48:07.097Z,8.98
2024-04-11T23:50:41.913Z,7.60
2024-04-11T23:53:16.422Z,7.60
2024-04-11T23:55:56.929Z,6.88
2024-04-11T23:58:33.343Z,7.05
